sensor_id;sensor_type;location;lat;lon;timestamp;temperature;humidity
47757;SHT35;22147;52.388;13.390;2022-08-07T00:00:28;12.76;67.85
47757;SHT35;22147;52.388;13.390;2022-08-07T00:02:56;12.79;67.62
47757;SHT35;22147;52.388;13.390;2022-08-07T00:05:25;12.83;67.24
47757;SHT35;22147;52.388;13.390;2022-08-07T00:07:54;12.84;67.13
47757;SHT35;22147;52.388;13.390;2022-08-07T00:10:30;12.87;67.07
47757;SHT35;22147;52.388;13.390;2022-08-07T00:13:02;12.79;67.40
47757;SHT35;22147;52.388;13.390;2022-08-07T00:15:52;12.82;67.29
47757;SHT35;22147;52.388;13.390;2022-08-07T00:18:26;12.73;67.43
47757;SHT35;22147;52.388;13.390;2022-08-07T00:21:02;12.56;68.11
47757;SHT35;22147;52.388;13.390;2022-08-07T00:23:49;12.59;68.04
47757;SHT35;22147;52.388;13.390;2022-08-07T00:26:16;12.61;68.17
47757;SHT35;22147;52.388;13.390;2022-08-07T00:29:03;12.55;67.99
47757;SHT35;22147;52.388;13.390;2022-08-07T00:31:31;12.58;67.82
47757;SHT35;22147;52.388;13.390;2022-08-07T00:34:07;12.53;68.23
47757;SHT35;22147;52.388;13.390;2022-08-07T00:36:39;12.52;68.11
47757;SHT35;22147;52.388;13.390;2022-08-07T00:39:11;12.52;68.31
47757;SHT35;22147;52.388;13.390;2022-08-07T00:41:57;12.48;68.63
47757;SHT35;22147;52.388;13.390;2022-08-07T00:44:33;12.51;68.31
47757;SHT35;22147;52.388;13.390;2022-08-07T00:47:05;12.51;68.80
47757;SHT35;22147;52.388;13.390;2022-08-07T00:49:54;12.46;68.82
47757;SHT35;22147;52.388;13.390;2022-08-07T00:52:42;12.49;68.71
47757;SHT35;22147;52.388;13.390;2022-08-07T00:55:13;12.46;68.84
47757;SHT35;22147;52.388;13.390;2022-08-07T00:57:51;12.44;68.74
47757;SHT35;22147;52.388;13.390;2022-08-07T01:00:23;12.42;69.31
47757;SHT35;22147;52.388;13.390;2022-08-07T01:02:51;12.34;69.46
47757;SHT35;22147;52.388;13.390;2022-08-07T01:05:20;12.29;69.67
47757;SHT35;22147;52.388;13.390;2022-08-07T01:07:51;12.34;69.78
47757;SHT35;22147;52.388;13.390;2022-08-07T01:10:18;12.28;69.77
47757;SHT35;22147;52.388;13.390;2022-08-07T01:12:48;12.29;69.63
47757;SHT35;22147;52.388;13.390;2022-08-07T01:15:22;12.22;71.05
47757;SHT35;22147;52.388;13.390;2022-08-07T01:18:11;12.14;70.60
47757;SHT35;22147;52.388;13.390;2022-08-07T01:21:16;12.21;70.19
47757;SHT35;22147;52.388;13.390;2022-08-07T01:23:55;12.25;70.13
47757;SHT35;22147;52.388;13.390;2022-08-07T01:26:24;12.25;70.23
47757;SHT35;22147;52.388;13.390;2022-08-07T01:28:54;12.25;70.00
47757;SHT35;22147;52.388;13.390;2022-08-07T01:31:22;12.22;71.20
47757;SHT35;22147;52.388;13.390;2022-08-07T01:34:14;12.08;71.35
47757;SHT35;22147;52.388;13.390;2022-08-07T01:36:49;12.08;70.77
47757;SHT35;22147;52.388;13.390;2022-08-07T01:39:28;12.13;70.64
47757;SHT35;22147;52.388;13.390;2022-08-07T01:42:19;12.15;72.12
47757;SHT35;22147;52.388;13.390;2022-08-07T01:45:07;12.00;72.11
47757;SHT35;22147;52.388;13.390;2022-08-07T01:47:43;11.89;73.01
47757;SHT35;22147;52.388;13.390;2022-08-07T01:50:35;11.83;72.36
47757;SHT35;22147;52.388;13.390;2022-08-07T01:53:10;11.55;74.30
47757;SHT35;22147;52.388;13.390;2022-08-07T01:56:01;11.55;72.95
47757;SHT35;22147;52.388;13.390;2022-08-07T01:58:37;11.63;72.76
47757;SHT35;22147;52.388;13.390;2022-08-07T02:01:22;11.66;73.02
47757;SHT35;22147;52.388;13.390;2022-08-07T02:04:43;11.45;73.38
47757;SHT35;22147;52.388;13.390;2022-08-07T02:07:29;11.53;73.69
47757;SHT35;22147;52.388;13.390;2022-08-07T02:10:22;11.45;73.80
47757;SHT35;22147;52.388;13.390;2022-08-07T02:12:52;11.24;75.14
47757;SHT35;22147;52.388;13.390;2022-08-07T02:15:29;11.26;74.66
47757;SHT35;22147;52.388;13.390;2022-08-07T02:18:02;11.19;75.34
47757;SHT35;22147;52.388;13.390;2022-08-07T02:20:33;11.14;75.56
47757;SHT35;22147;52.388;13.390;2022-08-07T02:23:04;11.15;74.95
47757;SHT35;22147;52.388;13.390;2022-08-07T02:25:38;11.21;74.79
47757;SHT35;22147;52.388;13.390;2022-08-07T02:28:30;11.31;74.51
47757;SHT35;22147;52.388;13.390;2022-08-07T02:31:02;11.29;74.32
47757;SHT35;22147;52.388;13.390;2022-08-07T02:33:54;11.21;75.70
47757;SHT35;22147;52.388;13.390;2022-08-07T02:36:40;11.05;76.01
47757;SHT35;22147;52.388;13.390;2022-08-07T02:39:13;11.04;75.12
47757;SHT35;22147;52.388;13.390;2022-08-07T02:42:03;11.05;75.59
47757;SHT35;22147;52.388;13.390;2022-08-07T02:44:45;11.07;74.85
47757;SHT35;22147;52.388;13.390;2022-08-07T02:47:17;11.11;74.42
47757;SHT35;22147;52.388;13.390;2022-08-07T02:49:50;11.17;74.37
47757;SHT35;22147;52.388;13.390;2022-08-07T02:52:45;11.18;74.06
47757;SHT35;22147;52.388;13.390;2022-08-07T02:55:26;11.19;73.96
47757;SHT35;22147;52.388;13.390;2022-08-07T02:58:22;11.28;73.61
47757;SHT35;22147;52.388;13.390;2022-08-07T03:00:58;11.31;73.35
47757;SHT35;22147;52.388;13.390;2022-08-07T03:03:31;11.34;73.38
47757;SHT35;22147;52.388;13.390;2022-08-07T03:06:19;11.34;73.36
47757;SHT35;22147;52.388;13.390;2022-08-07T03:09:02;11.31;73.37
47757;SHT35;22147;52.388;13.390;2022-08-07T03:11:34;11.28;73.44
47757;SHT35;22147;52.388;13.390;2022-08-07T03:14:06;11.29;73.84
47757;SHT35;22147;52.388;13.390;2022-08-07T03:16:35;11.28;73.94
47757;SHT35;22147;52.388;13.390;2022-08-07T03:19:05;11.26;73.68
47757;SHT35;22147;52.388;13.390;2022-08-07T03:21:34;11.32;73.52
47757;SHT35;22147;52.388;13.390;2022-08-07T03:24:03;11.32;73.99
47757;SHT35;22147;52.388;13.390;2022-08-07T03:26:52;11.28;74.25
47757;SHT35;22147;52.388;13.390;2022-08-07T03:29:33;11.26;74.29
47757;SHT35;22147;52.388;13.390;2022-08-07T03:32:10;11.17;74.39
47757;SHT35;22147;52.388;13.390;2022-08-07T03:34:44;11.11;74.55
47757;SHT35;22147;52.388;13.390;2022-08-07T03:37:32;11.14;74.47
47757;SHT35;22147;52.388;13.390;2022-08-07T03:40:20;11.12;74.32
47757;SHT35;22147;52.388;13.390;2022-08-07T03:42:51;11.14;74.55
47757;SHT35;22147;52.388;13.390;2022-08-07T03:45:23;11.15;74.35
47757;SHT35;22147;52.388;13.390;2022-08-07T03:47:58;11.14;74.42
47757;SHT35;22147;52.388;13.390;2022-08-07T03:50:27;11.12;74.50
47757;SHT35;22147;52.388;13.390;2022-08-07T03:52:58;11.08;74.27
47757;SHT35;22147;52.388;13.390;2022-08-07T03:55:30;11.12;74.38
47757;SHT35;22147;52.388;13.390;2022-08-07T03:58:22;11.12;74.60
47757;SHT35;22147;52.388;13.390;2022-08-07T04:01:12;11.11;74.45
47757;SHT35;22147;52.388;13.390;2022-08-07T04:03:40;11.14;74.43
47757;SHT35;22147;52.388;13.390;2022-08-07T04:06:21;11.14;74.36
47757;SHT35;22147;52.388;13.390;2022-08-07T04:09:07;11.15;74.76
47757;SHT35;22147;52.388;13.390;2022-08-07T04:11:44;11.15;74.96
47757;SHT35;22147;52.388;13.390;2022-08-07T04:14:34;11.21;74.82
47757;SHT35;22147;52.388;13.390;2022-08-07T04:17:11;11.22;74.70
47757;SHT35;22147;52.388;13.390;2022-08-07T04:19:50;11.25;74.53
47757;SHT35;22147;52.388;13.390;2022-08-07T04:22:23;11.29;74.39
47757;SHT35;22147;52.388;13.390;2022-08-07T04:24:58;11.36;74.18
47757;SHT35;22147;52.388;13.390;2022-08-07T04:27:28;11.40;74.04
47757;SHT35;22147;52.388;13.390;2022-08-07T04:30:06;11.49;74.36
47757;SHT35;22147;52.388;13.390;2022-08-07T04:32:54;11.47;74.47
47757;SHT35;22147;52.388;13.390;2022-08-07T04:35:25;11.49;74.10
47757;SHT35;22147;52.388;13.390;2022-08-07T04:37:52;11.46;74.92
47757;SHT35;22147;52.388;13.390;2022-08-07T04:40:30;11.55;74.45
47757;SHT35;22147;52.388;13.390;2022-08-07T04:42:59;11.62;74.33
47757;SHT35;22147;52.388;13.390;2022-08-07T04:45:46;11.71;74.04
47757;SHT35;22147;52.388;13.390;2022-08-07T04:48:48;11.80;73.66
47757;SHT35;22147;52.388;13.390;2022-08-07T04:51:59;11.87;73.87
47757;SHT35;22147;52.388;13.390;2022-08-07T04:55:00;11.90;74.36
47757;SHT35;22147;52.388;13.390;2022-08-07T04:58:17;11.98;73.26
47757;SHT35;22147;52.388;13.390;2022-08-07T05:01:20;12.10;73.31
47757;SHT35;22147;52.388;13.390;2022-08-07T05:04:12;12.18;74.00
47757;SHT35;22147;52.388;13.390;2022-08-07T05:06:59;12.25;74.15
47757;SHT35;22147;52.388;13.390;2022-08-07T05:13:08;12.42;74.64
47757;SHT35;22147;52.388;13.390;2022-08-07T05:16:06;12.53;75.45
47757;SHT35;22147;52.388;13.390;2022-08-07T05:18:53;12.61;75.35
47757;SHT35;22147;52.388;13.390;2022-08-07T05:21:28;12.77;74.95
47757;SHT35;22147;52.388;13.390;2022-08-07T05:24:19;12.96;74.81
47757;SHT35;22147;52.388;13.390;2022-08-07T05:27:01;13.13;74.81
47757;SHT35;22147;52.388;13.390;2022-08-07T05:29:35;13.37;74.16
47757;SHT35;22147;52.388;13.390;2022-08-07T05:32:22;13.65;72.47
47757;SHT35;22147;52.388;13.390;2022-08-07T05:34:54;14.05;71.22
47757;SHT35;22147;52.388;13.390;2022-08-07T05:37:24;14.34;70.05
47757;SHT35;22147;52.388;13.390;2022-08-07T05:39:55;14.64;68.64
47757;SHT35;22147;52.388;13.390;2022-08-07T05:42:45;14.92;67.13
47757;SHT35;22147;52.388;13.390;2022-08-07T05:45:24;15.10;66.88
47757;SHT35;22147;52.388;13.390;2022-08-07T05:48:14;15.40;65.39
47757;SHT35;22147;52.388;13.390;2022-08-07T05:50:42;15.61;65.17
47757;SHT35;22147;52.388;13.390;2022-08-07T05:53:10;15.90;64.13
47757;SHT35;22147;52.388;13.390;2022-08-07T05:55:59;15.98;64.44
47757;SHT35;22147;52.388;13.390;2022-08-07T05:58:35;16.19;64.13
47757;SHT35;22147;52.388;13.390;2022-08-07T06:01:09;16.36;63.08
47757;SHT35;22147;52.388;13.390;2022-08-07T06:03:44;16.59;63.33
47757;SHT35;22147;52.388;13.390;2022-08-07T06:06:25;16.91;62.07
47757;SHT35;22147;52.388;13.390;2022-08-07T06:08:56;17.01;60.99
47757;SHT35;22147;52.388;13.390;2022-08-07T06:11:25;17.31;60.60
47757;SHT35;22147;52.388;13.390;2022-08-07T06:13:54;17.63;59.02
47757;SHT35;22147;52.388;13.390;2022-08-07T06:16:46;17.80;58.49
47757;SHT35;22147;52.388;13.390;2022-08-07T06:19:25;17.96;57.88
47757;SHT35;22147;52.388;13.390;2022-08-07T06:22:16;18.20;58.56
47757;SHT35;22147;52.388;13.390;2022-08-07T06:24:52;18.44;56.79
47757;SHT35;22147;52.388;13.390;2022-08-07T06:27:27;18.51;57.76
47757;SHT35;22147;52.388;13.390;2022-08-07T06:30:14;18.89;57.04
47757;SHT35;22147;52.388;13.390;2022-08-07T06:32:58;19.13;56.41
47757;SHT35;22147;52.388;13.390;2022-08-07T06:35:25;19.18;52.89
47757;SHT35;22147;52.388;13.390;2022-08-07T06:38:11;19.30;53.00
47757;SHT35;22147;52.388;13.390;2022-08-07T06:40:53;19.71;52.24
47757;SHT35;22147;52.388;13.390;2022-08-07T06:43:25;19.94;48.04
47757;SHT35;22147;52.388;13.390;2022-08-07T06:46:07;20.10;50.21
47757;SHT35;22147;52.388;13.390;2022-08-07T06:48:39;20.37;48.40
47757;SHT35;22147;52.388;13.390;2022-08-07T06:51:19;20.44;48.22
47757;SHT35;22147;52.388;13.390;2022-08-07T06:54:02;20.48;48.76
47757;SHT35;22147;52.388;13.390;2022-08-07T06:56:53;20.78;47.60
47757;SHT35;22147;52.388;13.390;2022-08-07T06:59:30;21.11;46.39
47757;SHT35;22147;52.388;13.390;2022-08-07T07:02:21;21.03;45.27
47757;SHT35;22147;52.388;13.390;2022-08-07T07:05:12;20.96;46.89
47757;SHT35;22147;52.388;13.390;2022-08-07T07:07:59;21.25;43.85
47757;SHT35;22147;52.388;13.390;2022-08-07T07:10:35;21.05;46.42
47757;SHT35;22147;52.388;13.390;2022-08-07T07:13:22;21.27;45.15
47757;SHT35;22147;52.388;13.390;2022-08-07T07:16:22;21.67;45.46
47757;SHT35;22147;52.388;13.390;2022-08-07T07:19:03;21.74;44.47
47757;SHT35;22147;52.388;13.390;2022-08-07T07:21:53;21.64;43.91
47757;SHT35;22147;52.388;13.390;2022-08-07T07:24:41;21.70;43.81
47757;SHT35;22147;52.388;13.390;2022-08-07T07:27:35;21.94;42.83
47757;SHT35;22147;52.388;13.390;2022-08-07T07:30:35;22.22;44.31
47757;SHT35;22147;52.388;13.390;2022-08-07T07:33:13;22.66;42.04
47757;SHT35;22147;52.388;13.390;2022-08-07T07:35:49;22.80;42.84
47757;SHT35;22147;52.388;13.390;2022-08-07T07:38:32;22.94;41.28
47757;SHT35;22147;52.388;13.390;2022-08-07T07:41:08;22.43;43.09
47757;SHT35;22147;52.388;13.390;2022-08-07T07:43:46;22.58;42.44
47757;SHT35;22147;52.388;13.390;2022-08-07T07:46:39;22.68;41.47
47757;SHT35;22147;52.388;13.390;2022-08-07T07:49:28;22.56;40.94
47757;SHT35;22147;52.388;13.390;2022-08-07T07:52:22;22.72;41.09
47757;SHT35;22147;52.388;13.390;2022-08-07T07:54:52;22.93;43.04
47757;SHT35;22147;52.388;13.390;2022-08-07T07:57:25;22.94;40.83
47757;SHT35;22147;52.388;13.390;2022-08-07T08:00:14;23.13;42.08
47757;SHT35;22147;52.388;13.390;2022-08-07T08:03:13;23.37;39.16
47757;SHT35;22147;52.388;13.390;2022-08-07T08:06:03;23.21;41.81
47757;SHT35;22147;52.388;13.390;2022-08-07T08:08:41;23.45;39.93
47757;SHT35;22147;52.388;13.390;2022-08-07T08:11:10;23.08;40.06
47757;SHT35;22147;52.388;13.390;2022-08-07T08:13:48;23.28;38.02
47757;SHT35;22147;52.388;13.390;2022-08-07T08:16:31;22.25;42.85
47757;SHT35;22147;52.388;13.390;2022-08-07T08:19:07;22.94;40.92
47757;SHT35;22147;52.388;13.390;2022-08-07T08:21:58;23.27;38.00
47757;SHT35;22147;52.388;13.390;2022-08-07T08:24:52;22.80;37.69
47757;SHT35;22147;52.388;13.390;2022-08-07T08:28:03;22.87;38.83
47757;SHT35;22147;52.388;13.390;2022-08-07T08:30:37;22.43;40.16
47757;SHT35;22147;52.388;13.390;2022-08-07T08:33:14;22.28;42.76
47757;SHT35;22147;52.388;13.390;2022-08-07T08:35:51;23.41;40.89
47757;SHT35;22147;52.388;13.390;2022-08-07T08:38:34;23.72;38.46
47757;SHT35;22147;52.388;13.390;2022-08-07T08:41:42;23.82;38.16
47757;SHT35;22147;52.388;13.390;2022-08-07T08:45:09;24.27;37.80
47757;SHT35;22147;52.388;13.390;2022-08-07T08:51:06;24.29;37.40
47757;SHT35;22147;52.388;13.390;2022-08-07T08:54:23;23.21;38.06
47757;SHT35;22147;52.388;13.390;2022-08-07T08:56:56;23.66;39.52
47757;SHT35;22147;52.388;13.390;2022-08-07T08:59:58;24.24;37.69
47757;SHT35;22147;52.388;13.390;2022-08-07T09:03:00;24.67;36.09
47757;SHT35;22147;52.388;13.390;2022-08-07T09:06:13;23.33;37.78
47757;SHT35;22147;52.388;13.390;2022-08-07T09:12:18;24.04;35.92
47757;SHT35;22147;52.388;13.390;2022-08-07T09:15:53;23.74;37.02
47757;SHT35;22147;52.388;13.390;2022-08-07T09:19:20;23.68;37.01
47757;SHT35;22147;52.388;13.390;2022-08-07T09:26:12;23.44;36.94
47757;SHT35;22147;52.388;13.390;2022-08-07T09:32:45;24.85;36.25
47757;SHT35;22147;52.388;13.390;2022-08-07T09:35:34;25.12;34.60
47757;SHT35;22147;52.388;13.390;2022-08-07T09:38:56;25.51;34.59
47757;SHT35;22147;52.388;13.390;2022-08-07T09:45:13;24.68;36.34
47757;SHT35;22147;52.388;13.390;2022-08-07T09:48:16;24.71;35.39
47757;SHT35;22147;52.388;13.390;2022-08-07T09:51:36;24.63;36.28
47757;SHT35;22147;52.388;13.390;2022-08-07T10:01:24;25.20;35.02
47757;SHT35;22147;52.388;13.390;2022-08-07T10:04:51;25.91;34.08
47757;SHT35;22147;52.388;13.390;2022-08-07T10:08:01;26.26;33.11
47757;SHT35;22147;52.388;13.390;2022-08-07T10:14:54;25.76;32.80
47757;SHT35;22147;52.388;13.390;2022-08-07T10:24:55;25.65;32.84
47757;SHT35;22147;52.388;13.390;2022-08-07T10:34:39;25.95;33.62
47757;SHT35;22147;52.388;13.390;2022-08-07T10:37:38;26.26;33.28
47757;SHT35;22147;52.388;13.390;2022-08-07T10:40:51;26.04;32.55
47757;SHT35;22147;52.388;13.390;2022-08-07T10:43:55;25.33;33.46
47757;SHT35;22147;52.388;13.390;2022-08-07T10:47:12;25.37;34.99
47757;SHT35;22147;52.388;13.390;2022-08-07T10:50:04;25.78;33.89
47757;SHT35;22147;52.388;13.390;2022-08-07T10:53:38;25.87;32.45
47757;SHT35;22147;52.388;13.390;2022-08-07T10:56:48;25.80;32.77
47757;SHT35;22147;52.388;13.390;2022-08-07T11:03:14;24.70;34.32
47757;SHT35;22147;52.388;13.390;2022-08-07T11:06:07;24.77;34.84
47757;SHT35;22147;52.388;13.390;2022-08-07T11:09:13;24.78;34.67
47757;SHT35;22147;52.388;13.390;2022-08-07T11:12:26;24.63;33.64
47757;SHT35;22147;52.388;13.390;2022-08-07T11:15:08;24.12;34.18
47757;SHT35;22147;52.388;13.390;2022-08-07T11:18:04;24.06;36.07
47757;SHT35;22147;52.388;13.390;2022-08-07T11:20:57;23.85;36.91
47757;SHT35;22147;52.388;13.390;2022-08-07T11:23:53;24.10;35.31
47757;SHT35;22147;52.388;13.390;2022-08-07T11:26:44;23.93;37.34
47757;SHT35;22147;52.388;13.390;2022-08-07T11:29:42;23.99;34.42
47757;SHT35;22147;52.388;13.390;2022-08-07T11:36:55;24.31;35.76
47757;SHT35;22147;52.388;13.390;2022-08-07T11:39:50;24.39;35.41
47757;SHT35;22147;52.388;13.390;2022-08-07T11:43:05;24.64;34.11
47757;SHT35;22147;52.388;13.390;2022-08-07T11:49:55;24.87;33.79
47757;SHT35;22147;52.388;13.390;2022-08-07T11:53:39;24.84;36.14
47757;SHT35;22147;52.388;13.390;2022-08-07T12:06:49;25.49;32.97
47757;SHT35;22147;52.388;13.390;2022-08-07T12:10:04;25.50;33.57
47757;SHT35;22147;52.388;13.390;2022-08-07T12:13:03;25.18;33.30
47757;SHT35;22147;52.388;13.390;2022-08-07T12:15:52;25.15;33.79
47757;SHT35;22147;52.388;13.390;2022-08-07T12:19:03;25.45;33.62
47757;SHT35;22147;52.388;13.390;2022-08-07T12:22:03;25.46;34.17
47757;SHT35;22147;52.388;13.390;2022-08-07T12:25:45;25.05;32.91
47757;SHT35;22147;52.388;13.390;2022-08-07T12:29:22;24.78;34.27
47757;SHT35;22147;52.388;13.390;2022-08-07T12:32:39;24.91;33.22
47757;SHT35;22147;52.388;13.390;2022-08-07T12:35:13;25.23;32.71
47757;SHT35;22147;52.388;13.390;2022-08-07T12:37:51;24.85;33.17
47757;SHT35;22147;52.388;13.390;2022-08-07T12:40:43;24.41;34.07
47757;SHT35;22147;52.388;13.390;2022-08-07T12:43:21;23.90;34.95
47757;SHT35;22147;52.388;13.390;2022-08-07T12:46:46;23.92;35.11
47757;SHT35;22147;52.388;13.390;2022-08-07T12:49:49;23.96;35.99
47757;SHT35;22147;52.388;13.390;2022-08-07T12:52:47;23.95;35.90
47757;SHT35;22147;52.388;13.390;2022-08-07T12:55:39;24.02;35.35
47757;SHT35;22147;52.388;13.390;2022-08-07T12:58:36;24.43;34.41
47757;SHT35;22147;52.388;13.390;2022-08-07T13:01:41;24.74;34.25
47757;SHT35;22147;52.388;13.390;2022-08-07T13:04:58;25.20;34.24
47757;SHT35;22147;52.388;13.390;2022-08-07T13:08:32;24.74;33.97
47757;SHT35;22147;52.388;13.390;2022-08-07T13:15:58;25.19;32.65
47757;SHT35;22147;52.388;13.390;2022-08-07T13:21:37;25.47;33.17
47757;SHT35;22147;52.388;13.390;2022-08-07T13:27:44;25.91;31.70
47757;SHT35;22147;52.388;13.390;2022-08-07T13:30:43;26.21;30.47
47757;SHT35;22147;52.388;13.390;2022-08-07T13:33:56;25.70;31.82
47757;SHT35;22147;52.388;13.390;2022-08-07T13:37:00;26.05;31.99
47757;SHT35;22147;52.388;13.390;2022-08-07T13:40:27;26.32;30.40
47757;SHT35;22147;52.388;13.390;2022-08-07T13:43:14;26.20;31.78
47757;SHT35;22147;52.388;13.390;2022-08-07T13:45:58;26.62;30.87
47757;SHT35;22147;52.388;13.390;2022-08-07T13:48:52;26.83;32.55
47757;SHT35;22147;52.388;13.390;2022-08-07T13:51:29;27.06;30.47
47757;SHT35;22147;52.388;13.390;2022-08-07T13:54:29;27.00;30.22
47757;SHT35;22147;52.388;13.390;2022-08-07T13:57:02;26.59;31.32
47757;SHT35;22147;52.388;13.390;2022-08-07T13:59:48;26.34;30.87
47757;SHT35;22147;52.388;13.390;2022-08-07T14:02:27;26.08;31.01
47757;SHT35;22147;52.388;13.390;2022-08-07T14:05:21;25.45;32.88
47757;SHT35;22147;52.388;13.390;2022-08-07T14:07:53;25.26;32.38
47757;SHT35;22147;52.388;13.390;2022-08-07T14:10:40;24.87;33.44
47757;SHT35;22147;52.388;13.390;2022-08-07T14:13:24;24.71;34.05
47757;SHT35;22147;52.388;13.390;2022-08-07T14:16:08;24.74;34.29
47757;SHT35;22147;52.388;13.390;2022-08-07T14:18:51;25.20;34.07
47757;SHT35;22147;52.388;13.390;2022-08-07T14:21:54;25.94;31.06
47757;SHT35;22147;52.388;13.390;2022-08-07T14:24:47;26.29;34.38
47757;SHT35;22147;52.388;13.390;2022-08-07T14:27:28;26.63;31.46
47757;SHT35;22147;52.388;13.390;2022-08-07T14:30:22;26.87;30.01
47757;SHT35;22147;52.388;13.390;2022-08-07T14:33:04;27.33;28.99
47757;SHT35;22147;52.388;13.390;2022-08-07T14:35:38;27.40;28.58
47757;SHT35;22147;52.388;13.390;2022-08-07T14:38:22;27.09;28.57
47757;SHT35;22147;52.388;13.390;2022-08-07T14:41:06;27.34;29.45
47757;SHT35;22147;52.388;13.390;2022-08-07T14:43:46;27.78;28.52
47757;SHT35;22147;52.388;13.390;2022-08-07T14:46:31;27.99;27.83
47757;SHT35;22147;52.388;13.390;2022-08-07T14:49:05;28.36;27.87
47757;SHT35;22147;52.388;13.390;2022-08-07T14:51:59;28.73;27.91
47757;SHT35;22147;52.388;13.390;2022-08-07T14:54:40;28.77;26.80
47757;SHT35;22147;52.388;13.390;2022-08-07T14:57:14;28.84;28.90
47757;SHT35;22147;52.388;13.390;2022-08-07T15:00:04;27.85;29.71
47757;SHT35;22147;52.388;13.390;2022-08-07T15:02:34;28.10;28.25
47757;SHT35;22147;52.388;13.390;2022-08-07T15:05:08;28.61;27.18
47757;SHT35;22147;52.388;13.390;2022-08-07T15:07:51;29.03;26.87
47757;SHT35;22147;52.388;13.390;2022-08-07T15:10:26;29.35;26.50
47757;SHT35;22147;52.388;13.390;2022-08-07T15:13:09;29.35;27.32
47757;SHT35;22147;52.388;13.390;2022-08-07T15:15:47;29.08;29.27
47757;SHT35;22147;52.388;13.390;2022-08-07T15:18:33;29.49;26.24
47757;SHT35;22147;52.388;13.390;2022-08-07T15:21:28;29.39;27.35
47757;SHT35;22147;52.388;13.390;2022-08-07T15:24:32;30.02;26.08
47757;SHT35;22147;52.388;13.390;2022-08-07T15:27:26;29.53;26.48
47757;SHT35;22147;52.388;13.390;2022-08-07T15:30:08;29.77;25.61
47757;SHT35;22147;52.388;13.390;2022-08-07T15:32:48;30.39;25.65
47757;SHT35;22147;52.388;13.390;2022-08-07T15:35:33;30.31;24.48
47757;SHT35;22147;52.388;13.390;2022-08-07T15:38:30;30.29;25.24
47757;SHT35;22147;52.388;13.390;2022-08-07T15:41:25;30.41;26.03
47757;SHT35;22147;52.388;13.390;2022-08-07T15:44:21;30.55;27.07
47757;SHT35;22147;52.388;13.390;2022-08-07T15:47:12;30.14;25.17
47757;SHT35;22147;52.388;13.390;2022-08-07T15:49:50;30.38;24.56
47757;SHT35;22147;52.388;13.390;2022-08-07T15:52:36;30.15;26.24
47757;SHT35;22147;52.388;13.390;2022-08-07T15:55:13;30.75;24.92
47757;SHT35;22147;52.388;13.390;2022-08-07T15:57:51;31.12;24.13
47757;SHT35;22147;52.388;13.390;2022-08-07T16:00:36;31.20;26.25
47757;SHT35;22147;52.388;13.390;2022-08-07T16:03:24;30.31;25.90
47757;SHT35;22147;52.388;13.390;2022-08-07T16:06:14;30.24;26.79
47757;SHT35;22147;52.388;13.390;2022-08-07T16:08:46;30.49;25.39
47757;SHT35;22147;52.388;13.390;2022-08-07T16:21:04;30.00;25.06
47757;SHT35;22147;52.388;13.390;2022-08-07T16:24:31;29.69;25.79
47757;SHT35;22147;52.388;13.390;2022-08-07T16:27:20;29.16;25.89
47757;SHT35;22147;52.388;13.390;2022-08-07T16:33:13;27.04;28.66
47757;SHT35;22147;52.388;13.390;2022-08-07T16:48:02;25.54;31.66
47757;SHT35;22147;52.388;13.390;2022-08-07T16:52:00;25.01;32.01
47757;SHT35;22147;52.388;13.390;2022-08-07T16:55:00;24.84;33.14
47757;SHT35;22147;52.388;13.390;2022-08-07T16:58:02;24.48;35.25
47757;SHT35;22147;52.388;13.390;2022-08-07T17:04:26;24.23;34.42
47757;SHT35;22147;52.388;13.390;2022-08-07T17:07:20;24.27;33.78
47757;SHT35;22147;52.388;13.390;2022-08-07T17:13:43;24.29;33.82
47757;SHT35;22147;52.388;13.390;2022-08-07T17:16:54;24.37;34.96
47757;SHT35;22147;52.388;13.390;2022-08-07T17:19:47;24.43;33.59
47757;SHT35;22147;52.388;13.390;2022-08-07T17:29:17;24.52;32.78
47757;SHT35;22147;52.388;13.390;2022-08-07T17:35:32;25.15;31.83
47757;SHT35;22147;52.388;13.390;2022-08-07T17:41:51;24.70;32.22
47757;SHT35;22147;52.388;13.390;2022-08-07T17:44:46;24.54;33.12
47757;SHT35;22147;52.388;13.390;2022-08-07T17:51:26;24.04;36.84
47757;SHT35;22147;52.388;13.390;2022-08-07T17:54:46;23.93;38.24
47757;SHT35;22147;52.388;13.390;2022-08-07T18:00:29;23.42;35.93
47757;SHT35;22147;52.388;13.390;2022-08-07T18:03:26;23.26;37.40
47757;SHT35;22147;52.388;13.390;2022-08-07T18:06:30;23.14;39.30
47757;SHT35;22147;52.388;13.390;2022-08-07T18:09:06;23.06;38.87
47757;SHT35;22147;52.388;13.390;2022-08-07T18:11:56;22.97;39.95
47757;SHT35;22147;52.388;13.390;2022-08-07T18:15:02;22.81;40.61
47757;SHT35;22147;52.388;13.390;2022-08-07T18:17:58;22.80;42.42
47757;SHT35;22147;52.388;13.390;2022-08-07T18:21:07;22.72;40.45
47757;SHT35;22147;52.388;13.390;2022-08-07T18:24:35;22.59;40.27
47757;SHT35;22147;52.388;13.390;2022-08-07T18:30:15;22.25;41.32
47757;SHT35;22147;52.388;13.390;2022-08-07T18:34:04;22.10;42.67
47757;SHT35;22147;52.388;13.390;2022-08-07T18:37:32;21.92;42.25
47757;SHT35;22147;52.388;13.390;2022-08-07T18:46:59;21.00;43.94
47757;SHT35;22147;52.388;13.390;2022-08-07T18:50:09;20.91;44.01
47757;SHT35;22147;52.388;13.390;2022-08-07T18:56:47;20.54;45.34
47757;SHT35;22147;52.388;13.390;2022-08-07T19:00:05;20.40;45.95
47757;SHT35;22147;52.388;13.390;2022-08-07T19:03:21;20.33;47.05
47757;SHT35;22147;52.388;13.390;2022-08-07T19:06:29;20.23;47.80
47757;SHT35;22147;52.388;13.390;2022-08-07T19:09:25;20.16;48.27
47757;SHT35;22147;52.388;13.390;2022-08-07T19:15:55;20.09;48.72
47757;SHT35;22147;52.388;13.390;2022-08-07T19:18:59;20.00;48.63
47757;SHT35;22147;52.388;13.390;2022-08-07T19:21:47;19.86;48.48
47757;SHT35;22147;52.388;13.390;2022-08-07T19:24:40;19.83;50.27
47757;SHT35;22147;52.388;13.390;2022-08-07T19:27:22;19.72;48.82
47757;SHT35;22147;52.388;13.390;2022-08-07T19:30:13;19.59;50.15
47757;SHT35;22147;52.388;13.390;2022-08-07T19:33:07;19.54;50.01
47757;SHT35;22147;52.388;13.390;2022-08-07T19:35:55;19.51;50.27
47757;SHT35;22147;52.388;13.390;2022-08-07T19:38:31;19.38;50.24
47757;SHT35;22147;52.388;13.390;2022-08-07T19:41:02;19.25;50.01
47757;SHT35;22147;52.388;13.390;2022-08-07T19:43:31;19.14;50.92
47757;SHT35;22147;52.388;13.390;2022-08-07T19:46:29;19.07;50.32
47757;SHT35;22147;52.388;13.390;2022-08-07T19:49:15;19.00;50.43
47757;SHT35;22147;52.388;13.390;2022-08-07T19:52:04;18.99;51.23